Time;durP1;ratioP1;P1;durP2;ratioP2;P2;SDS_P1;SDS_P2;PMS_P1;PMS_P2;Temp;Humidity;BMP_temperature;BMP_pressure;BME280_temperature;BME280_humidity;BME280_pressure;Samples;Min_cycle;Max_cycle;Signal;HPM_P1;HPM_P2
2022/02/22 00:01:26;;;;;;;;;;;5.70;99.90;;;;;;5013181;28;20022;-75
2022/02/22 00:03:53;;;;;;;;;;;5.60;99.90;;;;;;5015530;28;19933;-75
2022/02/22 00:06:20;;;;;;;;;;;5.60;99.90;;;;;;5017870;28;19968;-75
2022/02/22 00:08:46;;;;;;;;;;;5.50;99.90;;;;;;5017292;28;19933;-76
2022/02/22 00:11:13;;;;;;;;;;;5.20;99.90;;;;;;5014084;28;20005;-75
2022/02/22 00:13:41;;;;;;;;;;;5.40;99.90;;;;;;5021878;28;20012;-75
2022/02/22 00:16:08;;;;;;;;;;;5.40;99.90;;;;;;5019492;28;20016;-75
2022/02/22 00:18:35;;;;;;;;;;;5.30;99.90;;;;;;5021954;28;19926;-75
2022/02/22 00:21:01;;;;;;;;;;;5.30;99.90;;;;;;5017518;28;20008;-75
2022/02/22 00:23:28;;;;;;;;;;;5.40;99.90;;;;;;5011981;28;20008;-75
2022/02/22 00:25:55;;;;;;;;;;;5.30;99.90;;;;;;5017965;28;20016;-75
2022/02/22 00:28:21;;;;;;;;;;;5.30;99.90;;;;;;5017246;28;20451;-74
2022/02/22 00:30:49;;;;;;;;;;;5.20;99.90;;;;;;5028098;28;20016;-75
2022/02/22 00:33:16;;;;;;;;;;;5.30;99.90;;;;;;5020872;28;20020;-75
2022/02/22 00:35:43;;;;;;;;;;;5.20;99.90;;;;;;5013561;28;20028;-74
2022/02/22 00:38:10;;;;;;;;;;;5.10;99.90;;;;;;5013597;28;19925;-72
2022/02/22 00:40:37;;;;;;;;;;;5.10;99.90;;;;;;5027564;28;21289;-75
2022/02/22 00:43:03;;;;;;;;;;;5.10;99.90;;;;;;5011509;28;19932;-75
2022/02/22 00:45:30;;;;;;;;;;;5.10;99.90;;;;;;5019698;28;19968;-75
2022/02/22 00:47:58;;;;;;;;;;;5.00;99.90;;;;;;5013120;28;20020;-75
2022/02/22 00:50:24;;;;;;;;;;;5.00;99.90;;;;;;5021314;28;19933;-75
2022/02/22 00:52:51;;;;;;;;;;;4.90;99.90;;;;;;5010316;28;19969;-75
2022/02/22 00:55:18;;;;;;;;;;;4.90;99.90;;;;;;5014238;28;19932;-74
2022/02/22 00:57:45;;;;;;;;;;;4.70;99.90;;;;;;5011717;28;20281;-74
2022/02/22 01:00:13;;;;;;;;;;;4.70;99.90;;;;;;5020659;28;20378;-74
2022/02/22 01:02:39;;;;;;;;;;;4.60;99.90;;;;;;5015787;28;20003;-74
2022/02/22 01:05:08;;;;;;;;;;;4.60;99.90;;;;;;5011534;28;20376;-74
2022/02/22 01:07:35;;;;;;;;;;;4.40;99.90;;;;;;5014415;28;19925;-74
2022/02/22 01:10:02;;;;;;;;;;;4.40;99.90;;;;;;5012548;28;19931;-74
2022/02/22 01:12:28;;;;;;;;;;;4.40;99.90;;;;;;5011008;28;19925;-74
2022/02/22 01:14:55;;;;;;;;;;;4.40;99.90;;;;;;5011064;28;19944;-74
2022/02/22 01:17:21;;;;;;;;;;;4.40;99.90;;;;;;5013415;28;19938;-72
2022/02/22 01:19:48;;;;;;;;;;;4.30;99.90;;;;;;5012600;28;20107;-74
2022/02/22 01:22:17;;;;;;;;;;;4.30;99.90;;;;;;5014669;28;20003;-73
2022/02/22 01:24:43;;;;;;;;;;;4.30;99.90;;;;;;5016197;28;20377;-73
2022/02/22 01:27:10;;;;;;;;;;;4.10;99.90;;;;;;5013238;28;19937;-73
2022/02/22 01:29:36;;;;;;;;;;;4.20;99.90;;;;;;5010432;28;19945;-75
2022/02/22 01:32:03;;;;;;;;;;;4.10;99.90;;;;;;5013770;28;19925;-73
2022/02/22 01:34:30;;;;;;;;;;;4.10;99.90;;;;;;5019048;28;19925;-73
2022/02/22 01:36:57;;;;;;;;;;;4.00;99.90;;;;;;5009285;28;20352;-72
2022/02/22 01:39:25;;;;;;;;;;;4.10;99.90;;;;;;5009935;28;20291;-73
2022/02/22 01:41:52;;;;;;;;;;;4.10;99.90;;;;;;5011593;28;19926;-73
2022/02/22 01:44:21;;;;;;;;;;;4.10;99.90;;;;;;5014179;28;20038;-73
2022/02/22 01:46:58;;;;;;;;;;;4.10;99.90;;;;;;5009910;28;20028;-73
2022/02/22 01:49:24;;;;;;;;;;;4.00;99.90;;;;;;5014422;28;20040;-72
2022/02/22 01:51:51;;;;;;;;;;;3.90;99.90;;;;;;5012974;28;19925;-73
2022/02/22 01:54:18;;;;;;;;;;;4.00;99.90;;;;;;5020194;28;20434;-73
2022/02/22 01:56:47;;;;;;;;;;;3.90;99.90;;;;;;5021021;28;19932;-73
2022/02/22 01:59:13;;;;;;;;;;;4.00;99.90;;;;;;5018618;28;19926;-73
2022/02/22 02:01:40;;;;;;;;;;;3.90;99.90;;;;;;5015761;28;20415;-73
2022/02/22 02:04:07;;;;;;;;;;;3.90;99.90;;;;;;5015106;28;19933;-74
2022/02/22 02:06:34;;;;;;;;;;;4.00;99.90;;;;;;5018700;28;19925;-73
2022/02/22 02:09:01;;;;;;;;;;;4.00;99.90;;;;;;5026978;28;19925;-73
2022/02/22 02:11:27;;;;;;;;;;;4.00;99.90;;;;;;5014969;28;19948;-74
2022/02/22 02:13:55;;;;;;;;;;;4.00;99.90;;;;;;5010974;28;19926;-74
2022/02/22 02:16:22;;;;;;;;;;;3.90;99.90;;;;;;5010448;28;19925;-73
2022/02/22 02:18:48;;;;;;;;;;;4.00;99.90;;;;;;5010662;28;19926;-73
2022/02/22 02:21:16;;;;;;;;;;;4.00;99.90;;;;;;5010903;28;19925;-73
2022/02/22 02:23:44;;;;;;;;;;;4.00;99.90;;;;;;5012846;28;19929;-73
2022/02/22 02:26:10;;;;;;;;;;;4.00;99.90;;;;;;5023059;28;19925;-73
2022/02/22 02:28:37;;;;;;;;;;;3.90;99.90;;;;;;5013343;28;19925;-73
2022/02/22 02:31:04;;;;;;;;;;;3.80;99.90;;;;;;5022776;28;20347;-74
2022/02/22 02:33:30;;;;;;;;;;;3.90;99.90;;;;;;5013886;28;19926;-74
2022/02/22 02:35:57;;;;;;;;;;;3.90;99.90;;;;;;5020615;28;19925;-74
2022/02/22 02:38:24;;;;;;;;;;;3.90;99.90;;;;;;5019017;28;19979;-75
2022/02/22 02:40:52;;;;;;;;;;;3.80;99.90;;;;;;5015854;28;19925;-74
2022/02/22 02:43:18;;;;;;;;;;;3.90;99.90;;;;;;5011306;28;19929;-74
2022/02/22 02:45:46;;;;;;;;;;;3.80;99.90;;;;;;5013402;28;19934;-75
2022/02/22 02:48:12;;;;;;;;;;;3.90;99.90;;;;;;5008933;28;20311;-74
2022/02/22 02:50:39;;;;;;;;;;;3.80;99.90;;;;;;5009926;28;20384;-74
2022/02/22 02:53:06;;;;;;;;;;;3.90;99.90;;;;;;5014261;28;19925;-74
2022/02/22 02:55:32;;;;;;;;;;;3.80;99.90;;;;;;5010085;28;19933;-73
2022/02/22 02:58:00;;;;;;;;;;;3.70;99.90;;;;;;5014319;28;19937;-73
2022/02/22 03:00:27;;;;;;;;;;;3.80;99.90;;;;;;5013905;28;19925;-74
2022/02/22 03:02:54;;;;;;;;;;;3.80;99.90;;;;;;5010340;28;20275;-74
2022/02/22 03:05:21;;;;;;;;;;;3.80;99.90;;;;;;5020485;28;20292;-74
2022/02/22 03:07:47;;;;;;;;;;;3.90;99.90;;;;;;5018543;28;19937;-74
2022/02/22 03:10:14;;;;;;;;;;;4.00;99.90;;;;;;5028241;28;19932;-74
2022/02/22 03:12:41;;;;;;;;;;;3.90;99.90;;;;;;5013760;28;19932;-75
2022/02/22 03:15:09;;;;;;;;;;;3.90;99.90;;;;;;5020096;28;19980;-75
2022/02/22 03:17:36;;;;;;;;;;;3.90;99.90;;;;;;5017279;28;19925;-75
2022/02/22 03:20:03;;;;;;;;;;;3.80;99.90;;;;;;5016570;28;20464;-74
2022/02/22 03:22:30;;;;;;;;;;;3.80;99.90;;;;;;5012064;28;19929;-75
2022/02/22 03:24:56;;;;;;;;;;;3.90;99.90;;;;;;5016939;28;20397;-75
2022/02/22 03:27:23;;;;;;;;;;;3.90;99.90;;;;;;5021667;28;19933;-75
2022/02/22 03:29:49;;;;;;;;;;;3.90;99.90;;;;;;5019637;28;19925;-74
2022/02/22 03:32:18;;;;;;;;;;;3.90;99.90;;;;;;5013516;28;20407;-75
2022/02/22 03:34:44;;;;;;;;;;;3.80;99.90;;;;;;5020319;28;19964;-77
2022/02/22 03:37:11;;;;;;;;;;;3.80;99.90;;;;;;5018046;28;20012;-74
2022/02/22 03:39:38;;;;;;;;;;;3.80;99.90;;;;;;5016845;28;19926;-74
2022/02/22 03:42:04;;;;;;;;;;;3.90;99.90;;;;;;5020110;28;20340;-74
2022/02/22 03:44:31;;;;;;;;;;;3.80;99.90;;;;;;5018658;28;19925;-74
2022/02/22 03:46:58;;;;;;;;;;;3.80;99.90;;;;;;5014128;28;20380;-75
2022/02/22 03:49:26;;;;;;;;;;;3.80;99.90;;;;;;5017179;28;19925;-75
2022/02/22 03:51:53;;;;;;;;;;;3.90;99.90;;;;;;5012283;28;19929;-74
2022/02/22 03:54:19;;;;;;;;;;;3.80;99.90;;;;;;5011305;28;19926;-76
2022/02/22 03:56:46;;;;;;;;;;;3.70;99.90;;;;;;5012424;28;19933;-74
2022/02/22 03:59:13;;;;;;;;;;;3.70;99.90;;;;;;5016878;28;20282;-74
2022/02/22 04:01:39;;;;;;;;;;;3.70;99.90;;;;;;5012472;28;19933;-75
2022/02/22 04:04:06;;;;;;;;;;;3.70;99.90;;;;;;5011414;28;20303;-75
2022/02/22 04:06:34;;;;;;;;;;;3.80;99.90;;;;;;5012884;28;19952;-74
2022/02/22 04:09:00;;;;;;;;;;;3.70;99.90;;;;;;5015511;28;20284;-74
2022/02/22 04:11:27;;;;;;;;;;;3.70;99.90;;;;;;5013911;28;20020;-74
2022/02/22 04:13:54;;;;;;;;;;;3.70;99.90;;;;;;5010481;28;19926;-74
2022/02/22 04:16:20;;;;;;;;;;;3.70;99.90;;;;;;5013289;28;19933;-74
2022/02/22 04:18:47;;;;;;;;;;;3.70;99.90;;;;;;5009633;28;19934;-74
2022/02/22 04:21:13;;;;;;;;;;;3.60;99.90;;;;;;5020077;28;19925;-75
2022/02/22 04:23:41;;;;;;;;;;;3.60;99.90;;;;;;5012250;28;20020;-75
2022/02/22 04:26:08;;;;;;;;;;;3.60;99.90;;;;;;5016817;28;19932;-75
2022/02/22 04:28:35;;;;;;;;;;;3.50;99.90;;;;;;5011538;28;19925;-74
2022/02/22 04:31:01;;;;;;;;;;;3.60;99.90;;;;;;5021092;28;19933;-75
2022/02/22 04:33:28;;;;;;;;;;;3.60;99.90;;;;;;5012628;28;19932;-74
2022/02/22 04:35:55;;;;;;;;;;;3.60;99.90;;;;;;5013340;28;19957;-74
2022/02/22 04:38:21;;;;;;;;;;;3.70;99.90;;;;;;5013128;28;19925;-74
2022/02/22 04:40:49;;;;;;;;;;;3.60;99.90;;;;;;5022070;28;19931;-74
2022/02/22 04:43:16;;;;;;;;;;;3.70;99.90;;;;;;5015600;28;19931;-75
2022/02/22 04:45:43;;;;;;;;;;;3.60;99.90;;;;;;5020450;28;19925;-74
2022/02/22 04:48:09;;;;;;;;;;;3.60;99.90;;;;;;5022309;28;19925;-75
2022/02/22 04:50:36;;;;;;;;;;;3.60;99.90;;;;;;5022292;28;19925;-74
2022/02/22 04:53:03;;;;;;;;;;;3.60;99.90;;;;;;5020343;28;19926;-73
2022/02/22 04:55:35;;;;;;;;;;;3.60;99.90;;;;;;5019167;28;19934;-74
2022/02/22 04:58:03;;;;;;;;;;;3.60;99.90;;;;;;5016702;28;19925;-74
2022/02/22 05:00:30;;;;;;;;;;;3.60;99.90;;;;;;5017269;28;19926;-75
2022/02/22 05:02:56;;;;;;;;;;;3.60;99.90;;;;;;5018120;28;19925;-75
2022/02/22 05:05:23;;;;;;;;;;;3.60;99.90;;;;;;5019039;28;19929;-75
2022/02/22 05:07:49;;;;;;;;;;;3.60;99.90;;;;;;5023730;28;19936;-75
2022/02/22 05:10:16;;;;;;;;;;;3.60;99.90;;;;;;5027830;28;19989;-75
2022/02/22 05:12:43;;;;;;;;;;;3.70;99.90;;;;;;5025877;28;19973;-74
2022/02/22 05:15:12;;;;;;;;;;;3.60;99.90;;;;;;5022964;28;19925;-75
2022/02/22 05:17:38;;;;;;;;;;;3.60;99.90;;;;;;5017983;28;20375;-73
2022/02/22 05:20:06;;;;;;;;;;;3.60;99.90;;;;;;5014020;28;20287;-74
2022/02/22 05:22:37;;;;;;;;;;;3.60;99.90;;;;;;5011313;28;20372;-73
2022/02/22 05:25:04;;;;;;;;;;;3.60;99.90;;;;;;5017042;28;19939;-74
2022/02/22 05:27:31;;;;;;;;;;;3.70;99.90;;;;;;5014580;28;19926;-74
2022/02/22 05:29:58;;;;;;;;;;;3.60;99.90;;;;;;5011162;28;19925;-74
2022/02/22 05:32:26;;;;;;;;;;;3.70;99.90;;;;;;5015641;28;19929;-74
2022/02/22 05:34:53;;;;;;;;;;;3.70;99.90;;;;;;5012959;28;19935;-74
2022/02/22 05:37:19;;;;;;;;;;;3.70;99.90;;;;;;5020976;28;20016;-74
2022/02/22 05:39:46;;;;;;;;;;;3.60;99.90;;;;;;5014007;28;19925;-74
2022/02/22 05:42:13;;;;;;;;;;;3.70;99.90;;;;;;5018946;28;20024;-74
2022/02/22 05:44:39;;;;;;;;;;;3.60;99.90;;;;;;5010070;28;19926;-74
2022/02/22 05:47:06;;;;;;;;;;;3.60;99.90;;;;;;5016741;28;19925;-73
2022/02/22 05:49:34;;;;;;;;;;;3.70;99.90;;;;;;5011347;28;20166;-74
2022/02/22 05:52:01;;;;;;;;;;;3.60;99.90;;;;;;5017428;28;20021;-73
2022/02/22 05:54:27;;;;;;;;;;;3.70;99.90;;;;;;5015056;28;19932;-74
2022/02/22 05:56:54;;;;;;;;;;;3.60;99.90;;;;;;5009960;28;20355;-74
2022/02/22 05:59:21;;;;;;;;;;;3.50;99.90;;;;;;5011829;28;20455;-73
2022/02/22 06:01:48;;;;;;;;;;;3.60;99.90;;;;;;5012071;28;20009;-73
2022/02/22 06:04:15;;;;;;;;;;;3.50;99.90;;;;;;5010931;28;19930;-73
2022/02/22 06:06:43;;;;;;;;;;;3.50;99.90;;;;;;5020310;28;19932;-73
2022/02/22 06:09:10;;;;;;;;;;;3.60;99.90;;;;;;5011198;28;19925;-73
2022/02/22 06:11:37;;;;;;;;;;;3.60;99.90;;;;;;5022503;28;20315;-72
2022/02/22 06:14:03;;;;;;;;;;;3.50;99.90;;;;;;5011314;28;19932;-73
2022/02/22 06:16:30;;;;;;;;;;;3.50;99.90;;;;;;5011245;28;19926;-72
2022/02/22 06:18:57;;;;;;;;;;;3.60;99.90;;;;;;5012743;28;20020;-74
2022/02/22 06:21:24;;;;;;;;;;;3.70;99.90;;;;;;5021322;28;19944;-73
2022/02/22 06:23:52;;;;;;;;;;;3.80;99.90;;;;;;5017690;28;19926;-73
2022/02/22 06:26:18;;;;;;;;;;;4.00;99.90;;;;;;5009518;28;19933;-74
2022/02/22 06:28:46;;;;;;;;;;;4.00;99.90;;;;;;5009116;28;20019;-73
2022/02/22 06:31:12;;;;;;;;;;;4.00;99.90;;;;;;5014436;28;19925;-74
2022/02/22 06:33:39;;;;;;;;;;;4.10;99.90;;;;;;5024092;28;19931;-75
2022/02/22 06:36:06;;;;;;;;;;;4.20;99.90;;;;;;5015113;28;19944;-74
2022/02/22 06:38:33;;;;;;;;;;;4.20;99.90;;;;;;5010342;28;19932;-73
2022/02/22 06:41:01;;;;;;;;;;;4.30;99.90;;;;;;5014811;28;19936;-73
2022/02/22 06:43:28;;;;;;;;;;;4.30;99.90;;;;;;5016804;28;19925;-73
2022/02/22 06:45:55;;;;;;;;;;;4.30;99.90;;;;;;5015497;28;19959;-74
2022/02/22 06:48:21;;;;;;;;;;;4.40;99.90;;;;;;5014862;28;19982;-74
2022/02/22 06:50:48;;;;;;;;;;;4.30;99.90;;;;;;5015304;28;19925;-74
2022/02/22 06:53:15;;;;;;;;;;;4.30;99.90;;;;;;5018171;28;20455;-74
2022/02/22 06:55:42;;;;;;;;;;;4.40;99.90;;;;;;5014399;28;20487;-73
2022/02/22 06:58:10;;;;;;;;;;;4.50;99.90;;;;;;5008530;28;20429;-73
2022/02/22 07:00:38;;;;;;;;;;;4.50;99.90;;;;;;5009154;28;20013;-74
2022/02/22 07:03:05;;;;;;;;;;;4.50;99.90;;;;;;5007972;28;19926;-71
2022/02/22 07:05:32;;;;;;;;;;;4.60;99.90;;;;;;5011164;28;19926;-72
2022/02/22 07:07:59;;;;;;;;;;;4.70;99.90;;;;;;5002858;28;20193;-73
2022/02/22 07:10:27;;;;;;;;;;;4.60;99.90;;;;;;5009303;28;19926;-73
2022/02/22 07:12:54;;;;;;;;;;;4.70;99.90;;;;;;5010233;28;19962;-71
2022/02/22 07:15:22;;;;;;;;;;;4.70;99.90;;;;;;5016712;28;19941;-72
2022/02/22 07:17:54;;;;;;;;;;;4.80;99.90;;;;;;5010466;28;19932;-72
2022/02/22 07:20:21;;;;;;;;;;;4.90;99.90;;;;;;5010934;28;19933;-73
2022/02/22 07:22:49;;;;;;;;;;;4.90;99.90;;;;;;5010690;28;19933;-75
2022/02/22 07:25:17;;;;;;;;;;;5.00;99.90;;;;;;5023520;28;19951;-72
2022/02/22 07:27:44;;;;;;;;;;;5.00;99.90;;;;;;5011127;28;19926;-72
2022/02/22 07:30:12;;;;;;;;;;;5.00;99.90;;;;;;5015665;28;19925;-73
2022/02/22 07:32:40;;;;;;;;;;;5.20;99.90;;;;;;5010468;28;20311;-72
2022/02/22 07:35:08;;;;;;;;;;;5.30;99.90;;;;;;5013949;28;19931;-72
2022/02/22 07:37:36;;;;;;;;;;;5.30;99.90;;;;;;5011423;28;19932;-72
2022/02/22 07:40:03;;;;;;;;;;;5.30;99.90;;;;;;5008335;28;19925;-71
2022/02/22 07:42:30;;;;;;;;;;;5.40;99.90;;;;;;5012054;28;19925;-74
2022/02/22 07:44:57;;;;;;;;;;;5.40;99.90;;;;;;5015073;28;19925;-72
2022/02/22 07:47:23;;;;;;;;;;;5.50;99.90;;;;;;5014725;28;19932;-72
2022/02/22 07:49:52;;;;;;;;;;;5.50;99.90;;;;;;5012680;28;19970;-73
2022/02/22 07:52:18;;;;;;;;;;;5.60;99.90;;;;;;5012230;28;19925;-75
2022/02/22 07:54:45;;;;;;;;;;;5.50;99.90;;;;;;5021178;28;20392;-72
2022/02/22 07:57:12;;;;;;;;;;;5.70;99.90;;;;;;5023713;28;19933;-72
2022/02/22 07:59:39;;;;;;;;;;;5.60;99.90;;;;;;5016515;28;19925;-72
2022/02/22 08:02:05;;;;;;;;;;;5.70;99.90;;;;;;5016895;28;19929;-72
2022/02/22 08:04:32;;;;;;;;;;;5.70;99.90;;;;;;5017787;28;19925;-72
2022/02/22 08:07:01;;;;;;;;;;;5.70;99.90;;;;;;5013523;28;19925;-72
2022/02/22 08:09:27;;;;;;;;;;;5.70;99.90;;;;;;5010633;28;20594;-73
2022/02/22 08:11:54;;;;;;;;;;;5.80;99.90;;;;;;5017280;28;19936;-72
2022/02/22 08:14:21;;;;;;;;;;;5.80;99.90;;;;;;5016141;28;19925;-73
2022/02/22 08:16:48;;;;;;;;;;;5.80;99.90;;;;;;5017715;28;19964;-73
2022/02/22 08:19:15;;;;;;;;;;;5.80;99.90;;;;;;5022029;28;19968;-73
2022/02/22 08:21:41;;;;;;;;;;;6.00;99.90;;;;;;5016375;28;19971;-73
2022/02/22 08:24:09;;;;;;;;;;;6.00;99.90;;;;;;5020877;28;20436;-73
2022/02/22 08:26:36;;;;;;;;;;;6.00;99.90;;;;;;5013674;28;19974;-73
2022/02/22 08:29:03;;;;;;;;;;;6.00;99.90;;;;;;5016019;28;20029;-73
2022/02/22 08:31:29;;;;;;;;;;;6.10;99.90;;;;;;5017830;28;19925;-73
2022/02/22 08:33:58;;;;;;;;;;;6.20;99.90;;;;;;5022644;28;19937;-73
2022/02/22 08:36:26;;;;;;;;;;;6.10;99.90;;;;;;5017649;28;19926;-73
2022/02/22 08:38:52;;;;;;;;;;;6.30;99.90;;;;;;5022534;28;20020;-73
2022/02/22 08:41:21;;;;;;;;;;;6.40;99.90;;;;;;5020657;28;19932;-73
2022/02/22 08:43:47;;;;;;;;;;;6.40;99.90;;;;;;5010350;28;19930;-72
2022/02/22 08:46:14;;;;;;;;;;;6.50;99.90;;;;;;5019855;28;19934;-72
2022/02/22 08:48:40;;;;;;;;;;;6.70;99.90;;;;;;5013054;28;19926;-73
2022/02/22 08:51:07;;;;;;;;;;;6.80;99.90;;;;;;5013920;28;20292;-73
2022/02/22 08:53:34;;;;;;;;;;;6.80;99.90;;;;;;5012093;28;20932;-73
2022/02/22 08:56:00;;;;;;;;;;;6.80;99.90;;;;;;5014109;28;19935;-72
2022/02/22 08:58:29;;;;;;;;;;;6.90;99.90;;;;;;5015941;28;20502;-74
2022/02/22 09:00:55;;;;;;;;;;;7.00;99.90;;;;;;5020439;28;19926;-73
2022/02/22 09:03:22;;;;;;;;;;;7.30;99.90;;;;;;5020886;28;19925;-73
2022/02/22 09:05:48;;;;;;;;;;;7.70;99.90;;;;;;5021073;28;19925;-73
2022/02/22 09:08:15;;;;;;;;;;;7.70;99.90;;;;;;5018124;28;19925;-73
2022/02/22 09:10:45;;;;;;;;;;;7.80;99.90;;;;;;5019698;28;19933;-73
2022/02/22 09:13:11;;;;;;;;;;;7.80;99.90;;;;;;5017384;28;20389;-73
2022/02/22 09:15:39;;;;;;;;;;;7.60;99.90;;;;;;5025179;27;19925;-73
2022/02/22 09:18:06;;;;;;;;;;;7.60;99.90;;;;;;5014191;28;19959;-74
2022/02/22 09:20:33;;;;;;;;;;;7.50;99.90;;;;;;5010711;28;19932;-73
2022/02/22 09:23:00;;;;;;;;;;;7.40;99.90;;;;;;5010200;28;19932;-74
2022/02/22 09:25:32;;;;;;;;;;;7.50;99.90;;;;;;5010835;27;20008;-74
2022/02/22 09:27:59;;;;;;;;;;;7.50;99.90;;;;;;5015414;28;19926;-73
2022/02/22 09:30:26;;;;;;;;;;;7.40;99.90;;;;;;5013734;28;20418;-73
2022/02/22 09:32:54;;;;;;;;;;;7.60;99.90;;;;;;5015940;28;19932;-73
2022/02/22 09:35:22;;;;;;;;;;;7.80;99.90;;;;;;5016879;28;19926;-72
2022/02/22 09:37:48;;;;;;;;;;;7.80;99.90;;;;;;5027210;28;19925;-73
2022/02/22 09:40:15;;;;;;;;;;;8.00;99.90;;;;;;5013368;28;19934;-73
2022/02/22 09:42:43;;;;;;;;;;;8.10;99.90;;;;;;5010418;23;19961;-74
2022/02/22 09:45:10;;;;;;;;;;;8.10;99.90;;;;;;4981065;28;19926;-72
2022/02/22 09:47:37;;;;;;;;;;;8.10;99.90;;;;;;4973207;28;20016;-72
2022/02/22 09:50:05;;;;;;;;;;;8.30;99.90;;;;;;4984847;28;20416;-72
2022/02/22 09:52:35;;;;;;;;;;;8.50;99.90;;;;;;4974364;28;19987;-72
2022/02/22 09:55:02;;;;;;;;;;;8.60;99.90;;;;;;4986772;28;20036;-72
2022/02/22 09:57:28;;;;;;;;;;;8.60;99.90;;;;;;4985001;28;19926;-73
2022/02/22 09:59:55;;;;;;;;;;;8.60;99.90;;;;;;4984114;28;20017;-76
2022/02/22 10:02:22;;;;;;;;;;;8.50;99.90;;;;;;4989250;28;19933;-77
2022/02/22 10:04:50;;;;;;;;;;;8.20;99.90;;;;;;4986693;28;20379;-76
2022/02/22 10:07:18;;;;;;;;;;;8.20;99.90;;;;;;4987904;28;19932;-72
2022/02/22 10:09:54;;;;;;;;;;;8.20;99.90;;;;;;4981308;28;19934;-74
2022/02/22 10:12:28;;;;;;;;;;;8.10;99.90;;;;;;4984043;28;19957;-72
2022/02/22 10:14:55;;;;;;;;;;;8.10;99.90;;;;;;4981746;28;19926;-72
2022/02/22 10:17:22;;;;;;;;;;;8.10;99.90;;;;;;4983345;28;19934;-72
2022/02/22 10:19:56;;;;;;;;;;;8.20;99.90;;;;;;4979210;28;19926;-71
2022/02/22 10:22:25;;;;;;;;;;;8.20;99.90;;;;;;4981687;28;20385;-71
2022/02/22 10:25:02;;;;;;;;;;;8.10;99.90;;;;;;4983718;28;19929;-73
2022/02/22 10:27:28;;;;;;;;;;;8.10;99.90;;;;;;4989006;28;20294;-72
2022/02/22 10:29:57;;;;;;;;;;;8.20;99.90;;;;;;4981857;28;20024;-72
2022/02/22 10:32:25;;;;;;;;;;;8.00;99.90;;;;;;4980122;28;20245;-72
2022/02/22 10:34:52;;;;;;;;;;;8.10;99.90;;;;;;4988229;28;19926;-73
2022/02/22 10:37:33;;;;;;;;;;;8.10;99.90;;;;;;4979585;28;21260;-72
2022/02/22 10:40:02;;;;;;;;;;;8.10;99.90;;;;;;4976614;28;20366;-73
2022/02/22 10:42:35;;;;;;;;;;;8.10;99.90;;;;;;4970050;28;19926;-72
2022/02/22 10:45:09;;;;;;;;;;;8.10;99.90;;;;;;4979612;28;20407;-72
2022/02/22 10:47:39;;;;;;;;;;;8.10;99.90;;;;;;4970855;28;19952;-71
2022/02/22 10:50:07;;;;;;;;;;;8.20;99.90;;;;;;4984097;28;20004;-71
2022/02/22 10:52:36;;;;;;;;;;;8.10;99.90;;;;;;4980762;28;19989;-73
2022/02/22 10:55:06;;;;;;;;;;;8.10;99.90;;;;;;4994779;28;19951;-72
2022/02/22 10:57:33;;;;;;;;;;;8.20;99.90;;;;;;4976061;28;19945;-72
2022/02/22 10:59:59;;;;;;;;;;;8.20;99.90;;;;;;4977866;28;19979;-73
2022/02/22 11:02:26;;;;;;;;;;;8.30;99.90;;;;;;4982684;28;20341;-73
2022/02/22 11:04:55;;;;;;;;;;;8.40;99.90;;;;;;4988386;28;19940;-73
2022/02/22 11:07:23;;;;;;;;;;;8.50;99.90;;;;;;4976943;28;20296;-72
2022/02/22 11:09:51;;;;;;;;;;;8.40;99.90;;;;;;4983327;28;19969;-72
2022/02/22 11:12:23;;;;;;;;;;;8.50;99.90;;;;;;4989255;28;19933;-72
2022/02/22 11:14:51;;;;;;;;;;;8.60;99.90;;;;;;4989695;28;19926;-73
2022/02/22 11:17:19;;;;;;;;;;;8.60;99.90;;;;;;4975256;28;19930;-72
2022/02/22 11:19:46;;;;;;;;;;;8.60;99.90;;;;;;4980260;28;20331;-73
2022/02/22 11:22:14;;;;;;;;;;;8.70;99.90;;;;;;4977589;28;20027;-75
2022/02/22 11:24:45;;;;;;;;;;;8.60;99.90;;;;;;4976752;28;19976;-72
2022/02/22 11:27:13;;;;;;;;;;;8.60;99.90;;;;;;4987632;28;19926;-73
2022/02/22 11:29:40;;;;;;;;;;;8.60;99.90;;;;;;4986221;28;19926;-72
2022/02/22 11:32:09;;;;;;;;;;;8.50;99.90;;;;;;4983153;28;19934;-72
2022/02/22 11:34:36;;;;;;;;;;;8.50;99.90;;;;;;4990225;28;19926;-73
2022/02/22 11:37:04;;;;;;;;;;;8.50;99.90;;;;;;4976077;28;20013;-73
2022/02/22 11:39:32;;;;;;;;;;;8.50;99.90;;;;;;4983622;28;19926;-73
2022/02/22 11:41:59;;;;;;;;;;;8.50;99.90;;;;;;4987090;28;20016;-71
2022/02/22 11:44:27;;;;;;;;;;;8.60;99.90;;;;;;4984801;28;19933;-73
2022/02/22 11:46:54;;;;;;;;;;;8.60;99.90;;;;;;4987749;28;20380;-73
2022/02/22 11:49:25;;;;;;;;;;;8.70;99.90;;;;;;4990512;28;19948;-71
2022/02/22 11:51:53;;;;;;;;;;;8.70;99.90;;;;;;4982750;28;19964;-72
2022/02/22 11:54:20;;;;;;;;;;;8.90;99.90;;;;;;4985240;28;19933;-74
2022/02/22 11:56:47;;;;;;;;;;;8.90;99.90;;;;;;4986902;28;19934;-71
2022/02/22 11:59:15;;;;;;;;;;;9.00;99.90;;;;;;4984627;28;19926;-72
2022/02/22 12:01:44;;;;;;;;;;;8.90;99.90;;;;;;4988097;28;20397;-72
2022/02/22 12:04:21;;;;;;;;;;;9.10;99.90;;;;;;4989036;28;19925;-71
2022/02/22 12:06:48;;;;;;;;;;;9.00;99.90;;;;;;4991064;28;19927;-71
2022/02/22 12:09:16;;;;;;;;;;;9.10;99.90;;;;;;4985306;28;20004;-71
2022/02/22 12:11:42;;;;;;;;;;;9.00;99.90;;;;;;4990096;28;19934;-72
2022/02/22 12:14:14;;;;;;;;;;;9.10;99.90;;;;;;4994003;28;19934;-71
2022/02/22 12:16:45;;;;;;;;;;;9.00;99.90;;;;;;4976512;28;19933;-71
2022/02/22 12:19:14;;;;;;;;;;;9.10;99.90;;;;;;4986004;28;20396;-73
2022/02/22 12:21:44;;;;;;;;;;;9.10;99.90;;;;;;4981267;28;20393;-71
2022/02/22 12:24:13;;;;;;;;;;;9.10;99.90;;;;;;4992781;28;19930;-72
2022/02/22 12:26:40;;;;;;;;;;;9.20;99.90;;;;;;4985804;28;19925;-72
2022/02/22 12:29:08;;;;;;;;;;;9.30;99.90;;;;;;4988128;28;20440;-72
2022/02/22 12:31:35;;;;;;;;;;;9.40;99.90;;;;;;4972515;28;20371;-72
2022/02/22 12:34:04;;;;;;;;;;;9.50;99.90;;;;;;4985135;28;20044;-72
2022/02/22 12:36:31;;;;;;;;;;;9.70;99.90;;;;;;4987269;28;19979;-72
2022/02/22 12:38:58;;;;;;;;;;;9.90;99.90;;;;;;4986279;28;19934;-72
2022/02/22 12:41:26;;;;;;;;;;;10.00;99.90;;;;;;4986798;28;19932;-72
2022/02/22 12:43:56;;;;;;;;;;;10.00;99.90;;;;;;4988084;28;20097;-72
2022/02/22 12:46:23;;;;;;;;;;;9.90;99.90;;;;;;4981459;28;20351;-72
2022/02/22 12:48:51;;;;;;;;;;;10.00;99.90;;;;;;4979099;28;19936;-72
2022/02/22 12:51:22;;;;;;;;;;;10.00;99.90;;;;;;4983626;28;20265;-72
2022/02/22 12:54:02;;;;;;;;;;;10.00;99.90;;;;;;4986365;28;19926;-72
2022/02/22 12:56:33;;;;;;;;;;;10.10;99.90;;;;;;4979937;28;20380;-73
2022/02/22 12:59:00;;;;;;;;;;;10.10;99.90;;;;;;4991480;28;19934;-75
2022/02/22 13:01:31;;;;;;;;;;;10.10;99.90;;;;;;4995767;28;19932;-74
2022/02/22 13:03:58;;;;;;;;;;;10.10;99.90;;;;;;4985747;28;19934;-74
2022/02/22 13:06:26;;;;;;;;;;;10.10;99.90;;;;;;4980959;28;19927;-73
2022/02/22 13:08:52;;;;;;;;;;;10.10;99.90;;;;;;4980939;28;19930;-72
2022/02/22 13:11:29;;;;;;;;;;;10.20;99.90;;;;;;4992137;28;19932;-73
2022/02/22 13:13:56;;;;;;;;;;;10.10;99.90;;;;;;4994058;28;20328;-72
2022/02/22 13:16:22;;;;;;;;;;;10.20;99.90;;;;;;4989876;28;19952;-73
2022/02/22 13:18:52;;;;;;;;;;;10.20;99.90;;;;;;4986181;28;19980;-72
2022/02/22 13:21:20;;;;;;;;;;;10.20;99.90;;;;;;4980011;28;19926;-73
2022/02/22 13:23:48;;;;;;;;;;;10.10;99.90;;;;;;4978485;28;19940;-73
2022/02/22 13:26:15;;;;;;;;;;;10.10;99.90;;;;;;4989388;28;20020;-73
2022/02/22 13:28:42;;;;;;;;;;;10.20;99.90;;;;;;4980325;28;19932;-73
2022/02/22 13:31:13;;;;;;;;;;;10.30;99.90;;;;;;4983822;28;19965;-73
2022/02/22 13:33:40;;;;;;;;;;;10.40;99.90;;;;;;4986387;28;19925;-73
2022/02/22 13:36:12;;;;;;;;;;;10.40;99.90;;;;;;4988409;28;20026;-73
2022/02/22 13:38:39;;;;;;;;;;;10.50;99.90;;;;;;4987673;28;19934;-74
2022/02/22 13:41:11;;;;;;;;;;;10.60;99.90;;;;;;4983608;28;19926;-73
2022/02/22 13:43:38;;;;;;;;;;;10.70;99.90;;;;;;4983016;28;19932;-73
2022/02/22 13:46:05;;;;;;;;;;;10.80;99.90;;;;;;4983168;28;19959;-73
2022/02/22 13:48:32;;;;;;;;;;;10.90;99.90;;;;;;4984536;28;20018;-73
2022/02/22 13:51:03;;;;;;;;;;;11.00;99.90;;;;;;4978493;28;20383;-74
2022/02/22 13:53:30;;;;;;;;;;;11.10;99.90;;;;;;4985220;28;19932;-74
2022/02/22 13:55:59;;;;;;;;;;;11.10;99.90;;;;;;4988010;28;19925;-73
2022/02/22 13:58:28;;;;;;;;;;;11.10;99.90;;;;;;4982571;28;19948;-74
2022/02/22 14:00:56;;;;;;;;;;;11.10;99.90;;;;;;4982898;28;19926;-73
2022/02/22 14:03:22;;;;;;;;;;;11.10;99.90;;;;;;4974093;28;20452;-73
2022/02/22 14:05:49;;;;;;;;;;;11.10;99.90;;;;;;4993115;28;20365;-73
2022/02/22 14:08:16;;;;;;;;;;;11.00;99.90;;;;;;4979040;28;20304;-73
2022/02/22 14:10:45;;;;;;;;;;;11.10;99.90;;;;;;4976123;28;19934;-72
2022/02/22 14:13:12;;;;;;;;;;;11.20;99.90;;;;;;4973161;28;19953;-72
2022/02/22 14:15:40;;;;;;;;;;;11.20;99.90;;;;;;4989099;28;19925;-72
2022/02/22 14:18:07;;;;;;;;;;;11.20;99.90;;;;;;4980517;28;19926;-72
2022/02/22 14:20:34;;;;;;;;;;;11.30;99.90;;;;;;4985513;28;19930;-73
2022/02/22 14:23:01;;;;;;;;;;;11.30;99.90;;;;;;4976419;28;19925;-72
2022/02/22 14:25:29;;;;;;;;;;;11.40;99.90;;;;;;4963948;28;19926;-72
2022/02/22 14:27:58;;;;;;;;;;;11.40;99.90;;;;;;4983910;28;19979;-72
2022/02/22 14:30:25;;;;;;;;;;;11.30;99.90;;;;;;4978400;28;19932;-72